sensor_id;sensor_type;location;lat;lon;timestamp;temperature;humidity
14877;DHT22;69691;48.172;17.070;2023-08-17T00:00:12;21.10;99.90
14877;DHT22;69691;48.172;17.070;2023-08-17T00:02:39;21.10;99.90
14877;DHT22;69691;48.172;17.070;2023-08-17T00:05:06;21.10;99.90
14877;DHT22;69691;48.172;17.070;2023-08-17T00:07:32;21.10;99.90
14877;DHT22;69691;48.172;17.070;2023-08-17T00:09:58;21.10;99.90
14877;DHT22;69691;48.172;17.070;2023-08-17T00:12:24;21.20;99.90
14877;DHT22;69691;48.172;17.070;2023-08-17T00:14:50;21.20;99.90
14877;DHT22;69691;48.172;17.070;2023-08-17T00:17:16;21.20;99.90
14877;DHT22;69691;48.172;17.070;2023-08-17T00:19:42;21.30;99.90
14877;DHT22;69691;48.172;17.070;2023-08-17T00:22:08;21.40;99.90
14877;DHT22;69691;48.172;17.070;2023-08-17T00:24:33;21.40;99.90
14877;DHT22;69691;48.172;17.070;2023-08-17T00:26:59;21.50;99.90
14877;DHT22;69691;48.172;17.070;2023-08-17T00:29:25;21.50;99.90
14877;DHT22;69691;48.172;17.070;2023-08-17T00:31:51;21.50;99.90
14877;DHT22;69691;48.172;17.070;2023-08-17T00:34:18;21.50;99.90
14877;DHT22;69691;48.172;17.070;2023-08-17T00:36:44;21.60;99.90
14877;DHT22;69691;48.172;17.070;2023-08-17T00:39:10;21.60;99.90
14877;DHT22;69691;48.172;17.070;2023-08-17T00:41:35;21.60;99.90
14877;DHT22;69691;48.172;17.070;2023-08-17T00:44:01;21.60;99.90
14877;DHT22;69691;48.172;17.070;2023-08-17T00:46:27;21.70;99.90
14877;DHT22;69691;48.172;17.070;2023-08-17T00:48:53;21.70;99.90
14877;DHT22;69691;48.172;17.070;2023-08-17T00:51:21;21.70;99.90
14877;DHT22;69691;48.172;17.070;2023-08-17T00:53:50;21.70;99.90
14877;DHT22;69691;48.172;17.070;2023-08-17T00:56:16;21.60;99.90
14877;DHT22;69691;48.172;17.070;2023-08-17T00:58:42;21.60;99.90
14877;DHT22;69691;48.172;17.070;2023-08-17T01:01:08;21.60;99.90
14877;DHT22;69691;48.172;17.070;2023-08-17T01:03:35;21.50;99.90
14877;DHT22;69691;48.172;17.070;2023-08-17T01:06:01;21.50;99.90
14877;DHT22;69691;48.172;17.070;2023-08-17T01:08:28;21.50;99.90
14877;DHT22;69691;48.172;17.070;2023-08-17T01:13:55;21.50;99.90
14877;DHT22;69691;48.172;17.070;2023-08-17T01:19:33;21.50;99.90
14877;DHT22;69691;48.172;17.070;2023-08-17T01:22:05;21.40;99.90
14877;DHT22;69691;48.172;17.070;2023-08-17T01:24:33;21.40;99.90
14877;DHT22;69691;48.172;17.070;2023-08-17T01:26:59;21.40;99.90
14877;DHT22;69691;48.172;17.070;2023-08-17T01:29:25;21.40;99.90
14877;DHT22;69691;48.172;17.070;2023-08-17T01:34:30;21.40;99.90
14877;DHT22;69691;48.172;17.070;2023-08-17T01:37:00;21.50;99.90
14877;DHT22;69691;48.172;17.070;2023-08-17T01:39:31;21.50;99.90
14877;DHT22;69691;48.172;17.070;2023-08-17T01:42:01;21.50;99.90
14877;DHT22;69691;48.172;17.070;2023-08-17T01:44:26;21.50;99.90
14877;DHT22;69691;48.172;17.070;2023-08-17T01:46:53;21.50;99.90
14877;DHT22;69691;48.172;17.070;2023-08-17T01:49:22;21.50;99.90
14877;DHT22;69691;48.172;17.070;2023-08-17T01:51:47;21.50;99.90
14877;DHT22;69691;48.172;17.070;2023-08-17T01:54:13;21.50;99.90
14877;DHT22;69691;48.172;17.070;2023-08-17T01:56:39;21.50;99.90
14877;DHT22;69691;48.172;17.070;2023-08-17T01:59:05;21.50;99.90
14877;DHT22;69691;48.172;17.070;2023-08-17T02:01:31;21.50;99.90
14877;DHT22;69691;48.172;17.070;2023-08-17T02:03:57;21.40;99.90
14877;DHT22;69691;48.172;17.070;2023-08-17T02:06:23;21.50;99.90
14877;DHT22;69691;48.172;17.070;2023-08-17T02:08:48;21.40;99.90
14877;DHT22;69691;48.172;17.070;2023-08-17T02:11:14;21.40;99.90
14877;DHT22;69691;48.172;17.070;2023-08-17T02:13:40;21.40;99.90
14877;DHT22;69691;48.172;17.070;2023-08-17T02:16:06;21.40;99.90
14877;DHT22;69691;48.172;17.070;2023-08-17T02:18:31;21.40;99.90
14877;DHT22;69691;48.172;17.070;2023-08-17T02:20:59;21.40;99.90
14877;DHT22;69691;48.172;17.070;2023-08-17T02:23:25;21.40;99.90
14877;DHT22;69691;48.172;17.070;2023-08-17T02:25:51;21.50;99.90
14877;DHT22;69691;48.172;17.070;2023-08-17T02:28:20;21.40;99.90
14877;DHT22;69691;48.172;17.070;2023-08-17T02:30:47;21.50;99.90
14877;DHT22;69691;48.172;17.070;2023-08-17T02:33:14;21.50;99.90
14877;DHT22;69691;48.172;17.070;2023-08-17T02:35:40;21.50;99.90
14877;DHT22;69691;48.172;17.070;2023-08-17T02:38:06;21.50;99.90
14877;DHT22;69691;48.172;17.070;2023-08-17T02:40:32;21.60;99.90
14877;DHT22;69691;48.172;17.070;2023-08-17T02:42:57;21.60;99.90
14877;DHT22;69691;48.172;17.070;2023-08-17T02:45:23;21.60;99.90
14877;DHT22;69691;48.172;17.070;2023-08-17T02:47:49;21.60;99.90
14877;DHT22;69691;48.172;17.070;2023-08-17T02:50:15;21.60;99.90
14877;DHT22;69691;48.172;17.070;2023-08-17T02:52:40;21.60;99.90
14877;DHT22;69691;48.172;17.070;2023-08-17T02:55:06;21.60;99.90
14877;DHT22;69691;48.172;17.070;2023-08-17T02:57:32;21.70;99.90
14877;DHT22;69691;48.172;17.070;2023-08-17T02:59:58;21.70;99.90
14877;DHT22;69691;48.172;17.070;2023-08-17T03:02:24;21.70;99.90
14877;DHT22;69691;48.172;17.070;2023-08-17T03:04:49;21.70;99.90
14877;DHT22;69691;48.172;17.070;2023-08-17T03:07:16;21.70;99.90
14877;DHT22;69691;48.172;17.070;2023-08-17T03:09:42;21.70;99.90
14877;DHT22;69691;48.172;17.070;2023-08-17T03:12:08;21.70;99.90
14877;DHT22;69691;48.172;17.070;2023-08-17T03:14:33;21.70;99.90
14877;DHT22;69691;48.172;17.070;2023-08-17T03:16:59;21.80;99.90
14877;DHT22;69691;48.172;17.070;2023-08-17T03:19:25;21.80;99.90
14877;DHT22;69691;48.172;17.070;2023-08-17T03:21:51;21.80;99.90
14877;DHT22;69691;48.172;17.070;2023-08-17T03:24:17;21.80;99.90
14877;DHT22;69691;48.172;17.070;2023-08-17T03:26:43;21.80;99.90
14877;DHT22;69691;48.172;17.070;2023-08-17T03:29:08;21.80;99.90
14877;DHT22;69691;48.172;17.070;2023-08-17T03:31:35;21.80;99.90
14877;DHT22;69691;48.172;17.070;2023-08-17T03:34:01;21.80;99.90
14877;DHT22;69691;48.172;17.070;2023-08-17T03:36:27;21.80;99.90
14877;DHT22;69691;48.172;17.070;2023-08-17T03:38:53;21.80;99.90
14877;DHT22;69691;48.172;17.070;2023-08-17T03:41:21;21.80;99.90
14877;DHT22;69691;48.172;17.070;2023-08-17T03:43:49;21.80;99.90
14877;DHT22;69691;48.172;17.070;2023-08-17T03:46:14;21.80;99.90
14877;DHT22;69691;48.172;17.070;2023-08-17T03:48:40;21.90;99.90
14877;DHT22;69691;48.172;17.070;2023-08-17T03:51:06;21.90;99.90
14877;DHT22;69691;48.172;17.070;2023-08-17T03:53:32;21.80;99.90
14877;DHT22;69691;48.172;17.070;2023-08-17T03:55:58;21.90;99.90
14877;DHT22;69691;48.172;17.070;2023-08-17T03:58:24;21.90;99.90
14877;DHT22;69691;48.172;17.070;2023-08-17T04:00:52;21.80;99.90
14877;DHT22;69691;48.172;17.070;2023-08-17T04:03:24;21.90;99.90
14877;DHT22;69691;48.172;17.070;2023-08-17T04:05:50;21.90;99.90
14877;DHT22;69691;48.172;17.070;2023-08-17T04:08:16;21.90;99.90
14877;DHT22;69691;48.172;17.070;2023-08-17T04:10:41;21.90;99.90
14877;DHT22;69691;48.172;17.070;2023-08-17T04:13:07;21.90;99.90
14877;DHT22;69691;48.172;17.070;2023-08-17T04:15:33;21.90;99.90
14877;DHT22;69691;48.172;17.070;2023-08-17T04:17:59;21.90;99.90
14877;DHT22;69691;48.172;17.070;2023-08-17T04:20:25;22.00;99.90
14877;DHT22;69691;48.172;17.070;2023-08-17T04:22:51;22.00;99.90
14877;DHT22;69691;48.172;17.070;2023-08-17T04:25:17;22.00;99.90
14877;DHT22;69691;48.172;17.070;2023-08-17T04:27:43;22.10;99.90
14877;DHT22;69691;48.172;17.070;2023-08-17T04:30:10;22.10;99.90
14877;DHT22;69691;48.172;17.070;2023-08-17T04:32:47;22.10;99.90
14877;DHT22;69691;48.172;17.070;2023-08-17T04:35:18;22.10;99.90
14877;DHT22;69691;48.172;17.070;2023-08-17T04:37:45;22.10;99.90
14877;DHT22;69691;48.172;17.070;2023-08-17T04:40:10;22.20;99.90
14877;DHT22;69691;48.172;17.070;2023-08-17T04:42:36;22.20;99.90
14877;DHT22;69691;48.172;17.070;2023-08-17T04:45:02;22.30;99.90
14877;DHT22;69691;48.172;17.070;2023-08-17T04:47:30;22.40;99.90
14877;DHT22;69691;48.172;17.070;2023-08-17T04:49:56;22.40;99.90
14877;DHT22;69691;48.172;17.070;2023-08-17T04:52:21;22.50;99.90
14877;DHT22;69691;48.172;17.070;2023-08-17T04:54:47;22.60;99.90
14877;DHT22;69691;48.172;17.070;2023-08-17T04:57:13;22.70;99.90
14877;DHT22;69691;48.172;17.070;2023-08-17T04:59:40;22.80;99.90
14877;DHT22;69691;48.172;17.070;2023-08-17T05:02:06;22.90;99.90
14877;DHT22;69691;48.172;17.070;2023-08-17T05:04:32;22.90;99.90
14877;DHT22;69691;48.172;17.070;2023-08-17T05:06:58;22.90;99.90
14877;DHT22;69691;48.172;17.070;2023-08-17T05:09:24;23.00;99.90
14877;DHT22;69691;48.172;17.070;2023-08-17T05:11:49;23.10;99.90
14877;DHT22;69691;48.172;17.070;2023-08-17T05:14:15;23.20;99.90
14877;DHT22;69691;48.172;17.070;2023-08-17T05:16:41;23.30;99.90
14877;DHT22;69691;48.172;17.070;2023-08-17T05:19:07;23.40;99.90
14877;DHT22;69691;48.172;17.070;2023-08-17T05:21:34;23.60;99.90
14877;DHT22;69691;48.172;17.070;2023-08-17T05:24:02;23.80;99.90
14877;DHT22;69691;48.172;17.070;2023-08-17T05:26:28;23.90;99.90
14877;DHT22;69691;48.172;17.070;2023-08-17T05:28:53;24.00;99.90
14877;DHT22;69691;48.172;17.070;2023-08-17T05:31:19;24.20;99.90
14877;DHT22;69691;48.172;17.070;2023-08-17T05:33:47;24.30;99.90
14877;DHT22;69691;48.172;17.070;2023-08-17T05:36:13;24.50;99.90
14877;DHT22;69691;48.172;17.070;2023-08-17T05:38:40;24.60;99.90
14877;DHT22;69691;48.172;17.070;2023-08-17T05:41:05;24.70;99.90
14877;DHT22;69691;48.172;17.070;2023-08-17T05:43:32;24.70;99.90
14877;DHT22;69691;48.172;17.070;2023-08-17T05:45:58;24.70;99.90
14877;DHT22;69691;48.172;17.070;2023-08-17T05:48:24;24.80;99.90
14877;DHT22;69691;48.172;17.070;2023-08-17T05:50:50;24.90;99.90
14877;DHT22;69691;48.172;17.070;2023-08-17T05:53:16;25.10;99.90
14877;DHT22;69691;48.172;17.070;2023-08-17T05:55:42;25.20;99.90
14877;DHT22;69691;48.172;17.070;2023-08-17T05:58:07;25.30;99.90
14877;DHT22;69691;48.172;17.070;2023-08-17T06:00:33;25.30;99.90
14877;DHT22;69691;48.172;17.070;2023-08-17T06:02:59;25.40;99.90
14877;DHT22;69691;48.172;17.070;2023-08-17T06:05:28;25.60;99.90
14877;DHT22;69691;48.172;17.070;2023-08-17T06:07:56;25.70;99.90
14877;DHT22;69691;48.172;17.070;2023-08-17T06:10:23;25.70;99.90
14877;DHT22;69691;48.172;17.070;2023-08-17T06:12:54;25.70;99.90
14877;DHT22;69691;48.172;17.070;2023-08-17T06:15:20;25.60;99.90
14877;DHT22;69691;48.172;17.070;2023-08-17T06:17:46;25.50;99.90
14877;DHT22;69691;48.172;17.070;2023-08-17T06:20:12;25.30;99.90
14877;DHT22;69691;48.172;17.070;2023-08-17T06:22:39;25.30;99.90
14877;DHT22;69691;48.172;17.070;2023-08-17T06:25:05;25.20;99.90
14877;DHT22;69691;48.172;17.070;2023-08-17T06:27:31;25.20;99.90
14877;DHT22;69691;48.172;17.070;2023-08-17T06:29:57;25.10;99.90
14877;DHT22;69691;48.172;17.070;2023-08-17T06:32:23;25.10;99.90
14877;DHT22;69691;48.172;17.070;2023-08-17T06:34:49;25.20;99.90
14877;DHT22;69691;48.172;17.070;2023-08-17T06:37:14;25.30;99.90
14877;DHT22;69691;48.172;17.070;2023-08-17T06:39:40;25.30;99.90
14877;DHT22;69691;48.172;17.070;2023-08-17T06:42:06;25.40;99.90
14877;DHT22;69691;48.172;17.070;2023-08-17T06:44:32;25.40;99.90
14877;DHT22;69691;48.172;17.070;2023-08-17T06:46:57;25.50;99.90
14877;DHT22;69691;48.172;17.070;2023-08-17T06:49:27;25.50;99.90
14877;DHT22;69691;48.172;17.070;2023-08-17T06:51:53;25.60;99.90
14877;DHT22;69691;48.172;17.070;2023-08-17T06:54:19;25.70;99.90
14877;DHT22;69691;48.172;17.070;2023-08-17T06:56:45;25.70;99.90
14877;DHT22;69691;48.172;17.070;2023-08-17T06:59:11;25.70;99.90
14877;DHT22;69691;48.172;17.070;2023-08-17T07:01:36;25.70;99.90
14877;DHT22;69691;48.172;17.070;2023-08-17T07:04:02;25.70;99.90
14877;DHT22;69691;48.172;17.070;2023-08-17T07:06:28;25.60;99.90
14877;DHT22;69691;48.172;17.070;2023-08-17T07:08:54;25.70;99.90
14877;DHT22;69691;48.172;17.070;2023-08-17T07:11:20;25.80;99.90
14877;DHT22;69691;48.172;17.070;2023-08-17T07:13:46;25.80;99.90
14877;DHT22;69691;48.172;17.070;2023-08-17T07:16:12;25.70;99.90
14877;DHT22;69691;48.172;17.070;2023-08-17T07:18:38;25.70;99.90
14877;DHT22;69691;48.172;17.070;2023-08-17T07:21:04;25.70;99.90
14877;DHT22;69691;48.172;17.070;2023-08-17T07:23:29;25.80;99.90
14877;DHT22;69691;48.172;17.070;2023-08-17T07:25:55;25.90;99.90
14877;DHT22;69691;48.172;17.070;2023-08-17T07:28:21;26.00;99.90
14877;DHT22;69691;48.172;17.070;2023-08-17T07:30:47;26.10;99.90
14877;DHT22;69691;48.172;17.070;2023-08-17T07:33:12;26.30;99.90
14877;DHT22;69691;48.172;17.070;2023-08-17T07:35:38;26.50;99.90
14877;DHT22;69691;48.172;17.070;2023-08-17T07:38:04;26.70;99.90
14877;DHT22;69691;48.172;17.070;2023-08-17T07:40:30;26.80;99.90
14877;DHT22;69691;48.172;17.070;2023-08-17T07:42:55;26.90;99.90
14877;DHT22;69691;48.172;17.070;2023-08-17T07:45:21;26.90;99.90
14877;DHT22;69691;48.172;17.070;2023-08-17T07:47:47;26.90;99.90
14877;DHT22;69691;48.172;17.070;2023-08-17T07:50:12;26.90;99.90
14877;DHT22;69691;48.172;17.070;2023-08-17T07:52:38;26.90;99.90
14877;DHT22;69691;48.172;17.070;2023-08-17T07:55:04;26.90;99.90
14877;DHT22;69691;48.172;17.070;2023-08-17T07:57:30;26.90;99.90
14877;DHT22;69691;48.172;17.070;2023-08-17T07:59:56;26.90;99.90
14877;DHT22;69691;48.172;17.070;2023-08-17T08:02:22;26.90;99.90
14877;DHT22;69691;48.172;17.070;2023-08-17T08:04:47;26.80;99.90
14877;DHT22;69691;48.172;17.070;2023-08-17T08:07:13;26.90;99.90
14877;DHT22;69691;48.172;17.070;2023-08-17T08:09:39;27.00;99.90
14877;DHT22;69691;48.172;17.070;2023-08-17T08:12:05;27.00;99.90
14877;DHT22;69691;48.172;17.070;2023-08-17T08:14:31;27.00;99.90
14877;DHT22;69691;48.172;17.070;2023-08-17T08:16:56;26.90;99.90
14877;DHT22;69691;48.172;17.070;2023-08-17T08:19:22;26.80;99.90
14877;DHT22;69691;48.172;17.070;2023-08-17T08:21:48;26.80;99.90
14877;DHT22;69691;48.172;17.070;2023-08-17T08:24:14;26.70;99.90
14877;DHT22;69691;48.172;17.070;2023-08-17T08:26:40;26.50;99.90
14877;DHT22;69691;48.172;17.070;2023-08-17T08:29:05;26.50;99.90
14877;DHT22;69691;48.172;17.070;2023-08-17T08:31:31;26.50;99.90
14877;DHT22;69691;48.172;17.070;2023-08-17T08:33:57;26.50;99.90
14877;DHT22;69691;48.172;17.070;2023-08-17T08:36:24;26.60;99.90
14877;DHT22;69691;48.172;17.070;2023-08-17T08:38:50;26.70;99.90
14877;DHT22;69691;48.172;17.070;2023-08-17T08:41:16;26.70;99.90
14877;DHT22;69691;48.172;17.070;2023-08-17T08:43:42;26.80;99.90
14877;DHT22;69691;48.172;17.070;2023-08-17T08:46:08;26.80;99.90
14877;DHT22;69691;48.172;17.070;2023-08-17T08:48:34;26.90;99.90
14877;DHT22;69691;48.172;17.070;2023-08-17T08:51:00;27.10;99.90
14877;DHT22;69691;48.172;17.070;2023-08-17T08:53:31;27.20;99.90
14877;DHT22;69691;48.172;17.070;2023-08-17T08:55:59;27.40;99.90
14877;DHT22;69691;48.172;17.070;2023-08-17T08:58:26;27.70;99.90
14877;DHT22;69691;48.172;17.070;2023-08-17T09:00:52;27.90;99.90
14877;DHT22;69691;48.172;17.070;2023-08-17T09:03:18;28.10;99.90
14877;DHT22;69691;48.172;17.070;2023-08-17T09:05:49;28.30;99.90
14877;DHT22;69691;48.172;17.070;2023-08-17T09:08:17;28.40;99.90
14877;DHT22;69691;48.172;17.070;2023-08-17T09:10:46;28.60;99.90
14877;DHT22;69691;48.172;17.070;2023-08-17T09:13:12;28.80;99.90
14877;DHT22;69691;48.172;17.070;2023-08-17T09:15:37;28.90;99.90
14877;DHT22;69691;48.172;17.070;2023-08-17T09:18:05;29.00;99.90
14877;DHT22;69691;48.172;17.070;2023-08-17T09:20:39;29.20;99.90
14877;DHT22;69691;48.172;17.070;2023-08-17T09:23:17;29.30;99.90
14877;DHT22;69691;48.172;17.070;2023-08-17T09:25:45;29.40;99.90
14877;DHT22;69691;48.172;17.070;2023-08-17T09:28:12;29.40;99.90
14877;DHT22;69691;48.172;17.070;2023-08-17T09:30:56;29.50;99.90
14877;DHT22;69691;48.172;17.070;2023-08-17T09:33:28;29.50;99.90
14877;DHT22;69691;48.172;17.070;2023-08-17T09:35:56;29.60;99.90
14877;DHT22;69691;48.172;17.070;2023-08-17T09:38:22;29.70;99.90
14877;DHT22;69691;48.172;17.070;2023-08-17T09:40:48;29.90;99.90
14877;DHT22;69691;48.172;17.070;2023-08-17T09:43:14;30.00;99.90
14877;DHT22;69691;48.172;17.070;2023-08-17T09:45:40;30.00;99.90
14877;DHT22;69691;48.172;17.070;2023-08-17T09:48:10;30.10;99.90
14877;DHT22;69691;48.172;17.070;2023-08-17T09:50:35;30.20;99.90
14877;DHT22;69691;48.172;17.070;2023-08-17T09:53:04;30.30;99.90
14877;DHT22;69691;48.172;17.070;2023-08-17T09:55:30;30.40;99.90
14877;DHT22;69691;48.172;17.070;2023-08-17T09:57:58;30.30;99.90
14877;DHT22;69691;48.172;17.070;2023-08-17T10:00:25;30.30;99.90
14877;DHT22;69691;48.172;17.070;2023-08-17T10:02:52;30.20;99.90
14877;DHT22;69691;48.172;17.070;2023-08-17T10:05:19;30.10;99.90
14877;DHT22;69691;48.172;17.070;2023-08-17T10:07:46;30.10;99.90
14877;DHT22;69691;48.172;17.070;2023-08-17T10:10:16;30.20;99.90
14877;DHT22;69691;48.172;17.070;2023-08-17T10:12:53;30.10;99.90
14877;DHT22;69691;48.172;17.070;2023-08-17T10:15:22;30.20;99.90
14877;DHT22;69691;48.172;17.070;2023-08-17T10:18:02;30.30;99.90
14877;DHT22;69691;48.172;17.070;2023-08-17T10:20:31;30.30;98.70
14877;DHT22;69691;48.172;17.070;2023-08-17T10:25:41;30.10;97.00
14877;DHT22;69691;48.172;17.070;2023-08-17T10:28:08;29.90;97.20
14877;DHT22;69691;48.172;17.070;2023-08-17T10:30:36;29.70;97.70
14877;DHT22;69691;48.172;17.070;2023-08-17T10:33:02;29.50;96.50
14877;DHT22;69691;48.172;17.070;2023-08-17T10:35:30;29.40;97.30
14877;DHT22;69691;48.172;17.070;2023-08-17T10:37:56;29.30;98.50
14877;DHT22;69691;48.172;17.070;2023-08-17T10:40:26;29.20;95.00
14877;DHT22;69691;48.172;17.070;2023-08-17T10:42:59;29.00;96.00
14877;DHT22;69691;48.172;17.070;2023-08-17T10:50:31;28.60;94.50
14877;DHT22;69691;48.172;17.070;2023-08-17T10:52:58;28.60;95.20
14877;DHT22;69691;48.172;17.070;2023-08-17T10:55:44;28.70;95.80
14877;DHT22;69691;48.172;17.070;2023-08-17T10:58:17;28.70;95.60
14877;DHT22;69691;48.172;17.070;2023-08-17T11:00:43;28.70;95.60
14877;DHT22;69691;48.172;17.070;2023-08-17T11:03:10;28.80;93.50
14877;DHT22;69691;48.172;17.070;2023-08-17T11:05:47;28.80;87.60
14877;DHT22;69691;48.172;17.070;2023-08-17T11:08:28;28.80;90.10
14877;DHT22;69691;48.172;17.070;2023-08-17T11:10:57;28.80;82.90
14877;DHT22;69691;48.172;17.070;2023-08-17T11:13:38;28.90;90.10
14877;DHT22;69691;48.172;17.070;2023-08-17T11:16:09;29.20;92.20
14877;DHT22;69691;48.172;17.070;2023-08-17T11:18:35;29.40;88.00
14877;DHT22;69691;48.172;17.070;2023-08-17T11:21:02;29.50;84.70
14877;DHT22;69691;48.172;17.070;2023-08-17T11:23:29;29.50;83.10
14877;DHT22;69691;48.172;17.070;2023-08-17T11:25:55;29.40;79.70
14877;DHT22;69691;48.172;17.070;2023-08-17T11:28:22;29.30;87.10
14877;DHT22;69691;48.172;17.070;2023-08-17T11:30:58;29.30;86.90
14877;DHT22;69691;48.172;17.070;2023-08-17T11:33:29;29.30;90.40
14877;DHT22;69691;48.172;17.070;2023-08-17T11:35:56;29.30;88.10
14877;DHT22;69691;48.172;17.070;2023-08-17T11:38:22;29.30;90.40
14877;DHT22;69691;48.172;17.070;2023-08-17T11:40:50;29.30;86.80
14877;DHT22;69691;48.172;17.070;2023-08-17T11:43:17;29.40;90.40
14877;DHT22;69691;48.172;17.070;2023-08-17T11:45:44;29.40;82.30
14877;DHT22;69691;48.172;17.070;2023-08-17T11:48:09;29.20;83.50
14877;DHT22;69691;48.172;17.070;2023-08-17T11:50:35;29.00;84.50
14877;DHT22;69691;48.172;17.070;2023-08-17T11:53:01;28.90;86.40
14877;DHT22;69691;48.172;17.070;2023-08-17T11:55:27;28.90;86.70
14877;DHT22;69691;48.172;17.070;2023-08-17T11:57:53;28.80;88.10
14877;DHT22;69691;48.172;17.070;2023-08-17T12:00:19;28.80;89.70
14877;DHT22;69691;48.172;17.070;2023-08-17T12:02:50;28.80;90.90
14877;DHT22;69691;48.172;17.070;2023-08-17T12:05:22;28.80;89.90
14877;DHT22;69691;48.172;17.070;2023-08-17T12:07:49;28.80;91.00
14877;DHT22;69691;48.172;17.070;2023-08-17T12:10:17;28.80;90.60
14877;DHT22;69691;48.172;17.070;2023-08-17T12:12:43;28.70;89.00
14877;DHT22;69691;48.172;17.070;2023-08-17T12:15:09;28.70;91.70
14877;DHT22;69691;48.172;17.070;2023-08-17T12:17:40;28.70;88.90
14877;DHT22;69691;48.172;17.070;2023-08-17T12:20:14;28.80;90.50
14877;DHT22;69691;48.172;17.070;2023-08-17T12:22:41;28.80;91.20
14877;DHT22;69691;48.172;17.070;2023-08-17T12:25:07;28.80;86.00
14877;DHT22;69691;48.172;17.070;2023-08-17T12:27:34;28.70;86.00
14877;DHT22;69691;48.172;17.070;2023-08-17T12:30:00;28.80;90.00
14877;DHT22;69691;48.172;17.070;2023-08-17T12:32:25;28.80;90.00
14877;DHT22;69691;48.172;17.070;2023-08-17T12:34:51;28.90;88.20
14877;DHT22;69691;48.172;17.070;2023-08-17T12:37:20;28.90;89.10
14877;DHT22;69691;48.172;17.070;2023-08-17T12:39:48;29.10;85.80
14877;DHT22;69691;48.172;17.070;2023-08-17T12:42:14;29.30;86.90
14877;DHT22;69691;48.172;17.070;2023-08-17T12:44:40;29.50;90.00
14877;DHT22;69691;48.172;17.070;2023-08-17T12:47:06;29.70;80.40
14877;DHT22;69691;48.172;17.070;2023-08-17T12:49:32;29.90;80.40
14877;DHT22;69691;48.172;17.070;2023-08-17T12:51:58;29.90;79.00
14877;DHT22;69691;48.172;17.070;2023-08-17T12:54:23;29.90;81.70
14877;DHT22;69691;48.172;17.070;2023-08-17T12:56:49;30.00;85.60
14877;DHT22;69691;48.172;17.070;2023-08-17T12:59:15;30.00;86.50
14877;DHT22;69691;48.172;17.070;2023-08-17T13:01:40;30.10;87.10
14877;DHT22;69691;48.172;17.070;2023-08-17T13:04:07;30.10;84.70
14877;DHT22;69691;48.172;17.070;2023-08-17T13:06:33;30.10;86.00
14877;DHT22;69691;48.172;17.070;2023-08-17T13:08:58;30.30;88.00
14877;DHT22;69691;48.172;17.070;2023-08-17T13:11:24;30.40;87.10
14877;DHT22;69691;48.172;17.070;2023-08-17T13:13:50;30.50;85.70
14877;DHT22;69691;48.172;17.070;2023-08-17T13:16:15;30.80;86.70
14877;DHT22;69691;48.172;17.070;2023-08-17T13:18:41;31.00;85.20
14877;DHT22;69691;48.172;17.070;2023-08-17T13:21:07;31.10;87.00
14877;DHT22;69691;48.172;17.070;2023-08-17T13:23:33;31.20;82.10
14877;DHT22;69691;48.172;17.070;2023-08-17T13:25:59;31.20;82.80
14877;DHT22;69691;48.172;17.070;2023-08-17T13:28:25;31.20;84.50
14877;DHT22;69691;48.172;17.070;2023-08-17T13:30:50;31.20;75.90
14877;DHT22;69691;48.172;17.070;2023-08-17T13:33:16;31.10;79.20
14877;DHT22;69691;48.172;17.070;2023-08-17T13:35:42;30.90;69.90
14877;DHT22;69691;48.172;17.070;2023-08-17T13:38:08;30.60;77.90
14877;DHT22;69691;48.172;17.070;2023-08-17T13:40:34;30.50;73.70
14877;DHT22;69691;48.172;17.070;2023-08-17T13:43:01;30.30;74.10
14877;DHT22;69691;48.172;17.070;2023-08-17T13:45:28;30.20;78.40
14877;DHT22;69691;48.172;17.070;2023-08-17T13:47:54;30.10;81.50
14877;DHT22;69691;48.172;17.070;2023-08-17T13:50:20;30.00;77.00
14877;DHT22;69691;48.172;17.070;2023-08-17T13:52:46;29.80;79.70
14877;DHT22;69691;48.172;17.070;2023-08-17T13:55:12;29.70;81.50
14877;DHT22;69691;48.172;17.070;2023-08-17T13:57:38;29.60;82.30
14877;DHT22;69691;48.172;17.070;2023-08-17T14:00:04;29.50;82.20
14877;DHT22;69691;48.172;17.070;2023-08-17T14:02:30;29.40;84.60
14877;DHT22;69691;48.172;17.070;2023-08-17T14:04:57;29.40;86.20
14877;DHT22;69691;48.172;17.070;2023-08-17T14:07:22;29.40;87.80
14877;DHT22;69691;48.172;17.070;2023-08-17T14:09:48;29.20;87.50
14877;DHT22;69691;48.172;17.070;2023-08-17T14:12:14;29.20;89.00
14877;DHT22;69691;48.172;17.070;2023-08-17T14:14:39;29.10;90.10
14877;DHT22;69691;48.172;17.070;2023-08-17T14:17:05;29.00;90.50
14877;DHT22;69691;48.172;17.070;2023-08-17T14:19:31;28.90;90.90
14877;DHT22;69691;48.172;17.070;2023-08-17T14:21:57;28.90;91.70
14877;DHT22;69691;48.172;17.070;2023-08-17T14:24:26;28.90;91.60
14877;DHT22;69691;48.172;17.070;2023-08-17T14:26:52;28.80;92.10
14877;DHT22;69691;48.172;17.070;2023-08-17T14:29:18;28.80;93.00
14877;DHT22;69691;48.172;17.070;2023-08-17T14:31:44;28.80;93.50
14877;DHT22;69691;48.172;17.070;2023-08-17T14:34:10;28.80;93.80
14877;DHT22;69691;48.172;17.070;2023-08-17T14:36:35;28.80;93.80
14877;DHT22;69691;48.172;17.070;2023-08-17T14:39:01;28.70;92.20
14877;DHT22;69691;48.172;17.070;2023-08-17T14:41:27;28.50;90.30
14877;DHT22;69691;48.172;17.070;2023-08-17T14:44:00;28.30;91.30
14877;DHT22;69691;48.172;17.070;2023-08-17T14:46:26;28.20;91.50
14877;DHT22;69691;48.172;17.070;2023-08-17T14:48:52;27.90;91.40
14877;DHT22;69691;48.172;17.070;2023-08-17T14:51:18;27.90;92.10
14877;DHT22;69691;48.172;17.070;2023-08-17T14:53:43;27.80;92.70
14877;DHT22;69691;48.172;17.070;2023-08-17T14:56:09;27.80;93.20
14877;DHT22;69691;48.172;17.070;2023-08-17T14:58:35;27.70;93.10
14877;DHT22;69691;48.172;17.070;2023-08-17T15:01:00;27.70;93.30
14877;DHT22;69691;48.172;17.070;2023-08-17T15:03:26;27.60;93.60
14877;DHT22;69691;48.172;17.070;2023-08-17T15:05:52;27.50;93.30
14877;DHT22;69691;48.172;17.070;2023-08-17T15:08:18;27.50;94.10
14877;DHT22;69691;48.172;17.070;2023-08-17T15:10:45;27.40;94.30
14877;DHT22;69691;48.172;17.070;2023-08-17T15:13:12;27.40;94.70
14877;DHT22;69691;48.172;17.070;2023-08-17T15:15:37;27.50;94.90
14877;DHT22;69691;48.172;17.070;2023-08-17T15:18:04;27.40;95.10
14877;DHT22;69691;48.172;17.070;2023-08-17T15:20:29;27.40;95.10
14877;DHT22;69691;48.172;17.070;2023-08-17T15:22:56;27.40;95.20
14877;DHT22;69691;48.172;17.070;2023-08-17T15:25:21;27.30;94.20
14877;DHT22;69691;48.172;17.070;2023-08-17T15:27:47;27.30;94.50